Lake Monticello, Virginia
Current Conditions -  °F | °C
As of 6:55 AM on Thursday 27 Nov 2014 (Local Time) from KLKU Reporting Station
Haze Haze  
Wind Chill: 36°   Ceiling: 100
Heat Index: 36°   Visibility: 1mi
Dew Point: 36°   Wind: 0mph
Humidity: 100%   Direction: NA
Pressure: 30"   Gusts: NA
Location:  37.8582°N, 78.2803°W
Report Text: KLKU 271155Z AUTO 00000KT 1SM BR OVC001 02/02 A3000 RMK AO2
Loading
Personal Weather Stations






























Interactive Weather Map New forecast layout! Learn more

10-Day Weather Forecast

Advertisements
Track Severe Weather on mobile